sensor_id;sensor_type;location;lat;lon;timestamp;pressure;altitude;pressure_sealevel;temperature;humidity
63819;BME280;49970;54.976;73.248;2023-05-23T00:00:54;101501.31;;;16.77;51.14
63819;BME280;49970;54.976;73.248;2023-05-23T00:03:43;101519.41;;;16.84;52.29
63819;BME280;49970;54.976;73.248;2023-05-23T00:07:33;101521.25;;;16.84;52.86
63819;BME280;49970;54.976;73.248;2023-05-23T00:11:04;101522.97;;;16.85;53.41
63819;BME280;49970;54.976;73.248;2023-05-23T00:13:30;101527.13;;;16.89;53.95
63819;BME280;49970;54.976;73.248;2023-05-23T00:15:59;101530.63;;;16.89;54.13
63819;BME280;49970;54.976;73.248;2023-05-23T00:18:27;101528.19;;;16.86;54.39
63819;BME280;49970;54.976;73.248;2023-05-23T00:20:53;101529.03;;;16.87;54.86
63819;BME280;49970;54.976;73.248;2023-05-23T00:23:19;101529.78;;;16.89;55.36
63819;BME280;49970;54.976;73.248;2023-05-23T00:25:47;101528.91;;;16.88;55.57
63819;BME280;49970;54.976;73.248;2023-05-23T00:28:17;101534.78;;;16.93;54.26
63819;BME280;49970;54.976;73.248;2023-05-23T00:30:44;101526.38;;;16.98;55.01
63819;BME280;49970;54.976;73.248;2023-05-23T00:33:10;101526.25;;;17.00;54.02
63819;BME280;49970;54.976;73.248;2023-05-23T00:35:41;101534.91;;;17.03;53.70
63819;BME280;49970;54.976;73.248;2023-05-23T00:38:07;101530.53;;;17.02;54.81
63819;BME280;49970;54.976;73.248;2023-05-23T00:40:34;101533.81;;;17.06;54.78
63819;BME280;49970;54.976;73.248;2023-05-23T00:43:01;101539.66;;;17.11;54.65
63819;BME280;49970;54.976;73.248;2023-05-23T00:45:27;101541.22;;;17.13;54.32
63819;BME280;49970;54.976;73.248;2023-05-23T00:47:54;101528.47;;;17.06;54.21
63819;BME280;49970;54.976;73.248;2023-05-23T00:50:21;101540.88;;;17.07;53.87
63819;BME280;49970;54.976;73.248;2023-05-23T00:52:48;101544.63;;;17.04;54.00
63819;BME280;49970;54.976;73.248;2023-05-23T00:55:14;101545.00;;;17.11;53.78
63819;BME280;49970;54.976;73.248;2023-05-23T00:57:41;101543.78;;;17.15;53.88
63819;BME280;49970;54.976;73.248;2023-05-23T01:00:10;101544.41;;;17.18;53.58
63819;BME280;49970;54.976;73.248;2023-05-23T01:02:41;101540.00;;;17.17;53.36
63819;BME280;49970;54.976;73.248;2023-05-23T01:05:09;101548.53;;;17.23;53.66
63819;BME280;49970;54.976;73.248;2023-05-23T01:07:36;101551.47;;;17.31;53.79
63819;BME280;49970;54.976;73.248;2023-05-23T01:10:23;101550.44;;;17.43;53.18
63819;BME280;49970;54.976;73.248;2023-05-23T01:14:42;101550.81;;;17.50;52.79
63819;BME280;49970;54.976;73.248;2023-05-23T01:22:05;101549.94;;;17.94;52.22
63819;BME280;49970;54.976;73.248;2023-05-23T01:24:56;101551.59;;;18.06;52.87
63819;BME280;49970;54.976;73.248;2023-05-23T01:30:12;101556.78;;;18.19;50.96
63819;BME280;49970;54.976;73.248;2023-05-23T01:32:39;101562.16;;;18.19;50.93
63819;BME280;49970;54.976;73.248;2023-05-23T01:35:06;101560.31;;;18.20;51.01
63819;BME280;49970;54.976;73.248;2023-05-23T01:37:32;101555.16;;;18.28;50.99
63819;BME280;49970;54.976;73.248;2023-05-23T01:39:59;101563.75;;;18.42;50.76
63819;BME280;49970;54.976;73.248;2023-05-23T01:42:25;101562.63;;;18.77;50.95
63819;BME280;49970;54.976;73.248;2023-05-23T01:44:52;101559.81;;;19.09;50.23
63819;BME280;49970;54.976;73.248;2023-05-23T01:47:20;101561.38;;;19.42;49.99
63819;BME280;49970;54.976;73.248;2023-05-23T01:49:47;101564.31;;;19.70;49.18
63819;BME280;49970;54.976;73.248;2023-05-23T01:52:15;101566.06;;;20.00;48.39
63819;BME280;49970;54.976;73.248;2023-05-23T01:54:42;101558.44;;;20.34;48.36
63819;BME280;49970;54.976;73.248;2023-05-23T01:57:09;101563.72;;;20.65;47.89
63819;BME280;49970;54.976;73.248;2023-05-23T01:59:36;101560.06;;;20.94;47.75
63819;BME280;49970;54.976;73.248;2023-05-23T02:02:04;101562.09;;;21.29;47.17
63819;BME280;49970;54.976;73.248;2023-05-23T02:04:31;101567.28;;;21.50;46.57
63819;BME280;49970;54.976;73.248;2023-05-23T02:06:58;101573.84;;;21.65;46.45
63819;BME280;49970;54.976;73.248;2023-05-23T02:09:24;101576.28;;;21.86;46.91
63819;BME280;49970;54.976;73.248;2023-05-23T02:11:50;101578.00;;;22.05;46.60
63819;BME280;49970;54.976;73.248;2023-05-23T02:14:17;101580.66;;;22.15;46.18
63819;BME280;49970;54.976;73.248;2023-05-23T02:16:43;101576.91;;;22.25;45.76
63819;BME280;49970;54.976;73.248;2023-05-23T02:19:10;101581.91;;;22.38;45.45
63819;BME280;49970;54.976;73.248;2023-05-23T02:21:38;101584.75;;;22.54;45.69
63819;BME280;49970;54.976;73.248;2023-05-23T02:24:04;101587.91;;;22.68;45.17
63819;BME280;49970;54.976;73.248;2023-05-23T02:26:30;101588.63;;;22.78;44.82
63819;BME280;49970;54.976;73.248;2023-05-23T02:28:57;101586.16;;;22.84;44.00
63819;BME280;49970;54.976;73.248;2023-05-23T02:31:25;101580.13;;;22.91;45.24
63819;BME280;49970;54.976;73.248;2023-05-23T02:33:54;101582.38;;;22.77;44.49
63819;BME280;49970;54.976;73.248;2023-05-23T02:36:21;101588.59;;;22.52;44.08
63819;BME280;49970;54.976;73.248;2023-05-23T02:38:48;101589.84;;;22.40;44.45
63819;BME280;49970;54.976;73.248;2023-05-23T02:41:15;101594.25;;;22.23;44.21
63819;BME280;49970;54.976;73.248;2023-05-23T02:43:45;101580.53;;;22.06;44.22
63819;BME280;49970;54.976;73.248;2023-05-23T02:46:12;101592.44;;;21.96;45.17
63819;BME280;49970;54.976;73.248;2023-05-23T02:48:38;101599.50;;;21.97;45.34
63819;BME280;49970;54.976;73.248;2023-05-23T02:51:04;101602.03;;;21.98;45.97
63819;BME280;49970;54.976;73.248;2023-05-23T02:53:31;101598.50;;;21.98;45.13
63819;BME280;49970;54.976;73.248;2023-05-23T02:55:57;101592.03;;;21.91;44.97
63819;BME280;49970;54.976;73.248;2023-05-23T02:58:24;101610.66;;;21.84;45.15
63819;BME280;49970;54.976;73.248;2023-05-23T03:00:51;101599.72;;;21.85;45.63
63819;BME280;49970;54.976;73.248;2023-05-23T03:03:17;101603.97;;;21.88;46.26
63819;BME280;49970;54.976;73.248;2023-05-23T03:05:43;101611.78;;;21.91;46.60
63819;BME280;49970;54.976;73.248;2023-05-23T03:08:09;101614.00;;;21.96;46.70
63819;BME280;49970;54.976;73.248;2023-05-23T03:10:36;101606.22;;;21.93;46.83
63819;BME280;49970;54.976;73.248;2023-05-23T03:13:22;101604.75;;;21.98;46.84
63819;BME280;49970;54.976;73.248;2023-05-23T03:16:58;101595.22;;;22.04;47.66
63819;BME280;49970;54.976;73.248;2023-05-23T03:19:25;101604.53;;;22.09;46.22
63819;BME280;49970;54.976;73.248;2023-05-23T03:22:11;101597.59;;;22.07;46.24
63819;BME280;49970;54.976;73.248;2023-05-23T03:26:02;101592.06;;;22.08;46.17
63819;BME280;49970;54.976;73.248;2023-05-23T03:30:07;101593.47;;;22.12;46.07
63819;BME280;49970;54.976;73.248;2023-05-23T03:38:17;101591.91;;;22.28;45.98
63819;BME280;49970;54.976;73.248;2023-05-23T03:40:43;101589.47;;;22.34;45.81
63819;BME280;49970;54.976;73.248;2023-05-23T03:43:10;101594.94;;;22.43;45.62
63819;BME280;49970;54.976;73.248;2023-05-23T03:45:39;101590.94;;;22.47;45.70
63819;BME280;49970;54.976;73.248;2023-05-23T03:48:31;101591.00;;;22.55;44.36
63819;BME280;49970;54.976;73.248;2023-05-23T03:52:02;101591.38;;;22.60;44.04
63819;BME280;49970;54.976;73.248;2023-05-23T03:54:29;101593.13;;;22.69;44.14
63819;BME280;49970;54.976;73.248;2023-05-23T03:56:55;101590.66;;;22.76;43.66
63819;BME280;49970;54.976;73.248;2023-05-23T03:59:22;101592.88;;;22.80;43.23
63819;BME280;49970;54.976;73.248;2023-05-23T04:01:48;101600.81;;;22.82;42.46
63819;BME280;49970;54.976;73.248;2023-05-23T04:04:15;101586.09;;;22.76;42.51
63819;BME280;49970;54.976;73.248;2023-05-23T04:06:42;101588.31;;;22.81;42.66
63819;BME280;49970;54.976;73.248;2023-05-23T04:09:09;101593.59;;;22.82;42.27
63819;BME280;49970;54.976;73.248;2023-05-23T04:11:39;101592.88;;;22.80;41.95
63819;BME280;49970;54.976;73.248;2023-05-23T04:14:06;101589.16;;;22.81;41.94
63819;BME280;49970;54.976;73.248;2023-05-23T04:16:33;101580.75;;;22.84;43.04
63819;BME280;49970;54.976;73.248;2023-05-23T04:19:01;101592.56;;;23.01;42.74
63819;BME280;49970;54.976;73.248;2023-05-23T04:21:29;101600.19;;;23.06;41.23
63819;BME280;49970;54.976;73.248;2023-05-23T04:24:04;101588.25;;;22.91;41.12
63819;BME280;49970;54.976;73.248;2023-05-23T04:26:30;101594.53;;;22.91;40.93
63819;BME280;49970;54.976;73.248;2023-05-23T04:28:57;101592.72;;;23.00;40.64
63819;BME280;49970;54.976;73.248;2023-05-23T04:31:25;101585.47;;;23.00;40.60
63819;BME280;49970;54.976;73.248;2023-05-23T04:33:51;101603.13;;;22.95;40.79
63819;BME280;49970;54.976;73.248;2023-05-23T04:36:19;101602.16;;;22.96;40.20
63819;BME280;49970;54.976;73.248;2023-05-23T04:38:51;101603.84;;;22.97;40.66
63819;BME280;49970;54.976;73.248;2023-05-23T04:41:18;101596.09;;;23.02;40.87
63819;BME280;49970;54.976;73.248;2023-05-23T04:43:51;101604.75;;;23.05;40.67
63819;BME280;49970;54.976;73.248;2023-05-23T04:46:48;101609.47;;;23.03;40.80
63819;BME280;49970;54.976;73.248;2023-05-23T04:50:25;101590.06;;;23.08;41.60
63819;BME280;49970;54.976;73.248;2023-05-23T04:52:51;101600.59;;;23.19;40.82
63819;BME280;49970;54.976;73.248;2023-05-23T04:55:20;101581.34;;;23.22;40.34
63819;BME280;49970;54.976;73.248;2023-05-23T04:57:46;101586.63;;;23.32;39.61
63819;BME280;49970;54.976;73.248;2023-05-23T05:00:12;101593.41;;;23.36;39.08
63819;BME280;49970;54.976;73.248;2023-05-23T05:02:40;101584.78;;;23.32;39.43
63819;BME280;49970;54.976;73.248;2023-05-23T05:05:07;101584.38;;;23.19;39.67
63819;BME280;49970;54.976;73.248;2023-05-23T05:07:33;101587.06;;;23.19;40.05
63819;BME280;49970;54.976;73.248;2023-05-23T05:10:01;101584.25;;;23.21;39.40
63819;BME280;49970;54.976;73.248;2023-05-23T05:12:29;101585.22;;;23.20;40.13
63819;BME280;49970;54.976;73.248;2023-05-23T05:14:55;101577.16;;;23.28;39.74
63819;BME280;49970;54.976;73.248;2023-05-23T05:17:22;101567.03;;;23.30;39.70
63819;BME280;49970;54.976;73.248;2023-05-23T05:20:00;101578.56;;;23.40;38.85
63819;BME280;49970;54.976;73.248;2023-05-23T05:22:27;101569.97;;;23.45;38.79
63819;BME280;49970;54.976;73.248;2023-05-23T05:24:53;101571.84;;;23.52;38.60
63819;BME280;49970;54.976;73.248;2023-05-23T05:27:19;101575.22;;;23.46;38.57
63819;BME280;49970;54.976;73.248;2023-05-23T05:29:46;101576.06;;;23.47;38.55
63819;BME280;49970;54.976;73.248;2023-05-23T05:32:13;101567.97;;;23.47;38.19
63819;BME280;49970;54.976;73.248;2023-05-23T05:34:40;101578.59;;;23.48;38.10
63819;BME280;49970;54.976;73.248;2023-05-23T05:37:08;101562.06;;;23.51;37.26
63819;BME280;49970;54.976;73.248;2023-05-23T05:39:34;101561.56;;;23.56;37.67
63819;BME280;49970;54.976;73.248;2023-05-23T05:42:00;101559.28;;;23.69;37.47
63819;BME280;49970;54.976;73.248;2023-05-23T05:44:28;101558.59;;;23.67;37.03
63819;BME280;49970;54.976;73.248;2023-05-23T05:46:55;101567.84;;;23.65;37.80
63819;BME280;49970;54.976;73.248;2023-05-23T05:49:21;101558.97;;;23.72;37.21
63819;BME280;49970;54.976;73.248;2023-05-23T05:51:47;101560.31;;;23.76;36.91
63819;BME280;49970;54.976;73.248;2023-05-23T05:54:14;101562.50;;;23.73;36.75
63819;BME280;49970;54.976;73.248;2023-05-23T05:56:40;101558.97;;;23.80;37.71
63819;BME280;49970;54.976;73.248;2023-05-23T05:59:08;101550.19;;;23.86;37.32
63819;BME280;49970;54.976;73.248;2023-05-23T06:01:35;101555.63;;;23.95;37.15
63819;BME280;49970;54.976;73.248;2023-05-23T06:04:04;101551.53;;;23.91;37.53
63819;BME280;49970;54.976;73.248;2023-05-23T06:06:31;101548.84;;;23.91;36.91
63819;BME280;49970;54.976;73.248;2023-05-23T06:08:58;101549.19;;;23.88;37.27
63819;BME280;49970;54.976;73.248;2023-05-23T06:11:24;101543.59;;;23.81;37.66
63819;BME280;49970;54.976;73.248;2023-05-23T06:13:53;101542.22;;;23.77;37.84
63819;BME280;49970;54.976;73.248;2023-05-23T06:16:39;101560.97;;;23.78;37.37
63819;BME280;49970;54.976;73.248;2023-05-23T06:24:07;101531.59;;;23.83;38.00
63819;BME280;49970;54.976;73.248;2023-05-23T06:26:34;101535.50;;;23.97;38.56
63819;BME280;49970;54.976;73.248;2023-05-23T06:29:02;101532.63;;;24.07;37.82
63819;BME280;49970;54.976;73.248;2023-05-23T06:31:29;101534.00;;;24.11;37.41
63819;BME280;49970;54.976;73.248;2023-05-23T06:33:57;101507.44;;;24.06;37.42
63819;BME280;49970;54.976;73.248;2023-05-23T06:36:23;101517.59;;;24.13;36.84
63819;BME280;49970;54.976;73.248;2023-05-23T06:38:49;101527.72;;;24.10;37.20
63819;BME280;49970;54.976;73.248;2023-05-23T06:41:15;101516.25;;;24.17;37.12
63819;BME280;49970;54.976;73.248;2023-05-23T06:43:42;101524.53;;;24.15;35.91
63819;BME280;49970;54.976;73.248;2023-05-23T06:46:21;101523.84;;;24.05;36.57
63819;BME280;49970;54.976;73.248;2023-05-23T06:48:47;101511.66;;;24.01;36.09
63819;BME280;49970;54.976;73.248;2023-05-23T06:51:37;101511.81;;;23.99;36.78
63819;BME280;49970;54.976;73.248;2023-05-23T06:55:29;101512.84;;;24.06;36.91
63819;BME280;49970;54.976;73.248;2023-05-23T06:59:11;101509.09;;;23.99;36.26
63819;BME280;49970;54.976;73.248;2023-05-23T07:01:38;101514.19;;;24.02;36.83
63819;BME280;49970;54.976;73.248;2023-05-23T07:04:14;101502.19;;;24.05;36.19
63819;BME280;49970;54.976;73.248;2023-05-23T07:06:40;101508.25;;;24.07;36.38
63819;BME280;49970;54.976;73.248;2023-05-23T07:09:07;101508.28;;;24.15;35.79
63819;BME280;49970;54.976;73.248;2023-05-23T07:11:33;101502.19;;;24.13;36.14
63819;BME280;49970;54.976;73.248;2023-05-23T07:14:01;101497.94;;;24.10;35.30
63819;BME280;49970;54.976;73.248;2023-05-23T07:16:35;101473.78;;;24.09;34.93
63819;BME280;49970;54.976;73.248;2023-05-23T07:19:07;101490.16;;;24.07;35.54
63819;BME280;49970;54.976;73.248;2023-05-23T07:21:39;101490.69;;;24.11;35.45
63819;BME280;49970;54.976;73.248;2023-05-23T07:24:06;101499.63;;;24.03;35.82
63819;BME280;49970;54.976;73.248;2023-05-23T07:26:33;101493.56;;;24.01;36.06
63819;BME280;49970;54.976;73.248;2023-05-23T07:28:59;101477.97;;;24.03;36.48
63819;BME280;49970;54.976;73.248;2023-05-23T07:31:26;101481.72;;;24.10;35.55
63819;BME280;49970;54.976;73.248;2023-05-23T07:33:56;101488.81;;;24.03;36.15
63819;BME280;49970;54.976;73.248;2023-05-23T07:36:28;101480.03;;;24.09;36.22
63819;BME280;49970;54.976;73.248;2023-05-23T07:38:58;101486.28;;;24.02;35.63
63819;BME280;49970;54.976;73.248;2023-05-23T07:41:25;101486.59;;;23.99;35.40
63819;BME280;49970;54.976;73.248;2023-05-23T07:43:51;101464.47;;;23.87;35.44
63819;BME280;49970;54.976;73.248;2023-05-23T07:46:18;101473.44;;;23.96;36.02
63819;BME280;49970;54.976;73.248;2023-05-23T07:48:44;101471.22;;;23.99;35.15
63819;BME280;49970;54.976;73.248;2023-05-23T07:51:12;101477.66;;;23.98;35.45
63819;BME280;49970;54.976;73.248;2023-05-23T07:53:38;101468.03;;;24.04;35.10
63819;BME280;49970;54.976;73.248;2023-05-23T07:56:07;101464.09;;;23.90;34.47
63819;BME280;49970;54.976;73.248;2023-05-23T07:58:38;101468.00;;;23.88;35.37
63819;BME280;49970;54.976;73.248;2023-05-23T08:01:04;101486.13;;;23.87;34.97
63819;BME280;49970;54.976;73.248;2023-05-23T08:03:49;101462.91;;;23.76;35.27
63819;BME280;49970;54.976;73.248;2023-05-23T08:06:22;101460.53;;;23.73;35.38
63819;BME280;49970;54.976;73.248;2023-05-23T08:08:48;101457.34;;;23.78;35.87
63819;BME280;49970;54.976;73.248;2023-05-23T08:11:15;101465.47;;;23.86;35.00
63819;BME280;49970;54.976;73.248;2023-05-23T08:13:45;101444.00;;;23.84;34.78
63819;BME280;49970;54.976;73.248;2023-05-23T08:16:30;101469.50;;;23.82;34.15
63819;BME280;49970;54.976;73.248;2023-05-23T08:18:57;101461.38;;;23.74;34.09
63819;BME280;49970;54.976;73.248;2023-05-23T08:21:23;101459.03;;;23.79;34.73
63819;BME280;49970;54.976;73.248;2023-05-23T08:23:49;101451.59;;;23.81;34.72
63819;BME280;49970;54.976;73.248;2023-05-23T08:26:16;101449.91;;;23.80;34.82
63819;BME280;49970;54.976;73.248;2023-05-23T08:28:43;101449.56;;;23.75;34.57
63819;BME280;49970;54.976;73.248;2023-05-23T08:31:09;101464.78;;;23.76;34.39
63819;BME280;49970;54.976;73.248;2023-05-23T08:33:36;101437.88;;;23.74;34.46
63819;BME280;49970;54.976;73.248;2023-05-23T08:39:52;101450.59;;;23.90;34.24
63819;BME280;49970;54.976;73.248;2023-05-23T08:42:39;101447.88;;;23.82;34.69
63819;BME280;49970;54.976;73.248;2023-05-23T08:45:08;101439.22;;;23.78;33.55
63819;BME280;49970;54.976;73.248;2023-05-23T08:47:36;101447.22;;;23.80;33.87
63819;BME280;49970;54.976;73.248;2023-05-23T08:50:20;101446.69;;;23.84;33.67
63819;BME280;49970;54.976;73.248;2023-05-23T08:53:08;101446.88;;;23.91;33.72
63819;BME280;49970;54.976;73.248;2023-05-23T08:55:38;101444.31;;;23.90;33.79
63819;BME280;49970;54.976;73.248;2023-05-23T08:58:06;101447.53;;;23.85;33.44
63819;BME280;49970;54.976;73.248;2023-05-23T09:00:41;101446.38;;;23.79;34.30
63819;BME280;49970;54.976;73.248;2023-05-23T09:03:08;101430.13;;;23.79;33.68
63819;BME280;49970;54.976;73.248;2023-05-23T09:05:49;101448.72;;;23.82;33.49
63819;BME280;49970;54.976;73.248;2023-05-23T09:08:18;101434.53;;;23.80;33.67
63819;BME280;49970;54.976;73.248;2023-05-23T09:10:47;101441.94;;;23.78;34.00
63819;BME280;49970;54.976;73.248;2023-05-23T09:13:19;101430.28;;;23.78;33.83
63819;BME280;49970;54.976;73.248;2023-05-23T09:18:42;101435.88;;;23.76;33.21
63819;BME280;49970;54.976;73.248;2023-05-23T09:21:12;101423.88;;;23.71;33.41
63819;BME280;49970;54.976;73.248;2023-05-23T09:23:49;101419.81;;;23.67;33.87
63819;BME280;49970;54.976;73.248;2023-05-23T09:26:15;101426.53;;;23.63;34.55
63819;BME280;49970;54.976;73.248;2023-05-23T09:28:43;101431.63;;;23.74;34.32
63819;BME280;49970;54.976;73.248;2023-05-23T09:31:10;101426.41;;;23.80;34.01
63819;BME280;49970;54.976;73.248;2023-05-23T09:33:41;101414.56;;;23.81;33.16
63819;BME280;49970;54.976;73.248;2023-05-23T09:36:09;101422.69;;;23.90;33.38
63819;BME280;49970;54.976;73.248;2023-05-23T09:38:39;101425.56;;;23.88;33.52
63819;BME280;49970;54.976;73.248;2023-05-23T09:41:06;101434.69;;;23.87;32.38
63819;BME280;49970;54.976;73.248;2023-05-23T09:43:33;101415.75;;;23.79;33.09
63819;BME280;49970;54.976;73.248;2023-05-23T09:46:06;101413.56;;;23.66;31.97
63819;BME280;49970;54.976;73.248;2023-05-23T09:48:32;101423.88;;;23.71;33.21
63819;BME280;49970;54.976;73.248;2023-05-23T09:51:03;101427.06;;;23.74;32.28
63819;BME280;49970;54.976;73.248;2023-05-23T09:53:29;101418.78;;;23.68;32.60
63819;BME280;49970;54.976;73.248;2023-05-23T09:55:58;101409.97;;;23.66;33.11
63819;BME280;49970;54.976;73.248;2023-05-23T09:58:26;101412.81;;;23.64;33.08
63819;BME280;49970;54.976;73.248;2023-05-23T10:00:54;101412.34;;;23.69;34.00
63819;BME280;49970;54.976;73.248;2023-05-23T10:03:29;101407.47;;;23.72;32.84
63819;BME280;49970;54.976;73.248;2023-05-23T10:05:59;101390.69;;;23.60;33.56
63819;BME280;49970;54.976;73.248;2023-05-23T10:08:37;101377.66;;;23.56;33.04
63819;BME280;49970;54.976;73.248;2023-05-23T10:13:43;101396.47;;;23.74;33.65
63819;BME280;49970;54.976;73.248;2023-05-23T10:16:22;101390.19;;;23.73;33.09
63819;BME280;49970;54.976;73.248;2023-05-23T10:19:07;101393.09;;;23.72;33.18
63819;BME280;49970;54.976;73.248;2023-05-23T10:21:41;101395.63;;;23.73;32.56
63819;BME280;49970;54.976;73.248;2023-05-23T10:24:11;101392.41;;;23.78;32.48
63819;BME280;49970;54.976;73.248;2023-05-23T10:26:38;101396.97;;;23.77;32.08
63819;BME280;49970;54.976;73.248;2023-05-23T10:29:06;101394.59;;;23.74;31.49
63819;BME280;49970;54.976;73.248;2023-05-23T10:31:32;101399.00;;;23.67;32.08
63819;BME280;49970;54.976;73.248;2023-05-23T10:34:10;101387.44;;;23.57;31.88
63819;BME280;49970;54.976;73.248;2023-05-23T10:36:47;101412.69;;;23.66;32.07
63819;BME280;49970;54.976;73.248;2023-05-23T10:45:22;101407.91;;;23.59;32.21
63819;BME280;49970;54.976;73.248;2023-05-23T10:47:51;101391.03;;;23.66;31.50
63819;BME280;49970;54.976;73.248;2023-05-23T10:50:32;101399.00;;;23.67;32.32
63819;BME280;49970;54.976;73.248;2023-05-23T10:53:01;101388.16;;;23.59;33.04
63819;BME280;49970;54.976;73.248;2023-05-23T10:55:35;101405.91;;;23.70;33.23
63819;BME280;49970;54.976;73.248;2023-05-23T10:58:19;101397.97;;;23.68;33.67
63819;BME280;49970;54.976;73.248;2023-05-23T11:00:55;101391.56;;;23.69;33.34
63819;BME280;49970;54.976;73.248;2023-05-23T11:03:31;101394.94;;;23.71;33.35
63819;BME280;49970;54.976;73.248;2023-05-23T11:05:58;101391.41;;;23.71;33.28
63819;BME280;49970;54.976;73.248;2023-05-23T11:08:26;101384.78;;;23.73;33.52
63819;BME280;49970;54.976;73.248;2023-05-23T11:10:59;101384.28;;;23.78;32.72
63819;BME280;49970;54.976;73.248;2023-05-23T11:13:25;101385.16;;;23.70;33.03
63819;BME280;49970;54.976;73.248;2023-05-23T11:18:50;101382.09;;;23.73;33.60
63819;BME280;49970;54.976;73.248;2023-05-23T11:21:18;101373.09;;;23.65;33.60
63819;BME280;49970;54.976;73.248;2023-05-23T11:23:45;101381.94;;;23.75;34.18
63819;BME280;49970;54.976;73.248;2023-05-23T11:26:31;101378.03;;;23.69;33.43
63819;BME280;49970;54.976;73.248;2023-05-23T11:28:58;101381.09;;;23.66;33.99
63819;BME280;49970;54.976;73.248;2023-05-23T11:31:24;101379.06;;;23.68;33.61
63819;BME280;49970;54.976;73.248;2023-05-23T11:33:51;101374.66;;;23.67;33.50
63819;BME280;49970;54.976;73.248;2023-05-23T11:36:20;101375.97;;;23.63;33.55
63819;BME280;49970;54.976;73.248;2023-05-23T11:38:46;101374.63;;;23.59;33.54
63819;BME280;49970;54.976;73.248;2023-05-23T11:41:12;101371.75;;;23.60;33.47
63819;BME280;49970;54.976;73.248;2023-05-23T11:43:51;101371.91;;;23.59;33.73
63819;BME280;49970;54.976;73.248;2023-05-23T11:46:17;101371.22;;;23.57;33.91
63819;BME280;49970;54.976;73.248;2023-05-23T11:48:47;101370.38;;;23.56;33.97
63819;BME280;49970;54.976;73.248;2023-05-23T11:51:14;101370.38;;;23.56;34.13
63819;BME280;49970;54.976;73.248;2023-05-23T11:53:40;101362.13;;;23.58;34.25
63819;BME280;49970;54.976;73.248;2023-05-23T11:56:07;101372.75;;;23.59;34.63
63819;BME280;49970;54.976;73.248;2023-05-23T11:58:35;101378.69;;;23.63;34.66
63819;BME280;49970;54.976;73.248;2023-05-23T12:01:04;101367.56;;;23.66;34.12
63819;BME280;49970;54.976;73.248;2023-05-23T12:03:54;101364.69;;;23.68;33.92
63819;BME280;49970;54.976;73.248;2023-05-23T12:06:20;101374.66;;;23.67;33.86
63819;BME280;49970;54.976;73.248;2023-05-23T12:08:51;101369.88;;;23.61;33.46
63819;BME280;49970;54.976;73.248;2023-05-23T12:11:17;101367.34;;;23.59;33.60
63819;BME280;49970;54.976;73.248;2023-05-23T12:13:44;101369.22;;;23.59;33.69
63819;BME280;49970;54.976;73.248;2023-05-23T12:16:12;101372.59;;;23.61;34.40
63819;BME280;49970;54.976;73.248;2023-05-23T12:18:41;101371.59;;;23.62;33.39
63819;BME280;49970;54.976;73.248;2023-05-23T12:21:07;101374.63;;;23.59;32.92
63819;BME280;49970;54.976;73.248;2023-05-23T12:23:34;101373.28;;;23.55;33.14
63819;BME280;49970;54.976;73.248;2023-05-23T12:26:04;101376.63;;;23.49;33.17
63819;BME280;49970;54.976;73.248;2023-05-23T12:28:38;101371.56;;;23.46;33.50
63819;BME280;49970;54.976;73.248;2023-05-23T12:31:24;101358.38;;;23.34;33.28
63819;BME280;49970;54.976;73.248;2023-05-23T12:33:52;101348.41;;;23.35;33.60
63819;BME280;49970;54.976;73.248;2023-05-23T12:36:25;101360.75;;;23.38;33.90
63819;BME280;49970;54.976;73.248;2023-05-23T12:38:52;101359.03;;;23.36;33.55
63819;BME280;49970;54.976;73.248;2023-05-23T12:41:19;101362.94;;;23.34;33.24
63819;BME280;49970;54.976;73.248;2023-05-23T12:43:54;101354.13;;;23.32;33.63
63819;BME280;49970;54.976;73.248;2023-05-23T12:46:22;101357.69;;;23.32;33.50
63819;BME280;49970;54.976;73.248;2023-05-23T12:48:49;101357.00;;;23.30;33.75
63819;BME280;49970;54.976;73.248;2023-05-23T12:51:16;101353.28;;;23.31;33.94
63819;BME280;49970;54.976;73.248;2023-05-23T12:53:42;101360.38;;;23.32;33.93
63819;BME280;49970;54.976;73.248;2023-05-23T12:56:09;101369.00;;;23.28;33.73
63819;BME280;49970;54.976;73.248;2023-05-23T12:58:35;101371.88;;;23.26;33.78
63819;BME280;49970;54.976;73.248;2023-05-23T13:01:02;101355.66;;;23.26;34.29
63819;BME280;49970;54.976;73.248;2023-05-23T13:03:30;101361.06;;;23.26;33.83
63819;BME280;49970;54.976;73.248;2023-05-23T13:05:57;101348.72;;;23.24;33.45
63819;BME280;49970;54.976;73.248;2023-05-23T13:08:24;101353.28;;;23.23;33.31
63819;BME280;49970;54.976;73.248;2023-05-23T13:10:52;101353.28;;;23.23;33.84
63819;BME280;49970;54.976;73.248;2023-05-23T13:13:18;101344.66;;;23.20;33.75
63819;BME280;49970;54.976;73.248;2023-05-23T13:15:45;101352.44;;;23.23;34.09
63819;BME280;49970;54.976;73.248;2023-05-23T13:18:12;101345.84;;;23.17;33.80
63819;BME280;49970;54.976;73.248;2023-05-23T13:20:38;101353.63;;;23.20;33.88
63819;BME280;49970;54.976;73.248;2023-05-23T13:23:05;101359.03;;;23.20;33.78
63819;BME280;49970;54.976;73.248;2023-05-23T13:25:31;101350.41;;;23.17;34.04
63819;BME280;49970;54.976;73.248;2023-05-23T13:27:57;101348.03;;;23.14;34.36
63819;BME280;49970;54.976;73.248;2023-05-23T13:30:23;101346.66;;;23.09;34.35
63819;BME280;49970;54.976;73.248;2023-05-23T13:32:50;101349.88;;;23.05;34.56
63819;BME280;49970;54.976;73.248;2023-05-23T13:35:16;101326.88;;;22.93;34.96
63819;BME280;49970;54.976;73.248;2023-05-23T13:37:43;101344.78;;;23.02;34.86
63819;BME280;49970;54.976;73.248;2023-05-23T13:40:12;101345.09;;;22.99;34.63